sensor_id;sensor_type;location;lat;lon;timestamp;pressure;altitude;pressure_sealevel;temperature;humidity
47330;BME280;33060;50.178;7.570;2023-03-04T00:02:22;97778.09;;;-2.28;94.68
47330;BME280;33060;50.178;7.570;2023-03-04T00:04:49;97784.16;;;-2.29;93.70
47330;BME280;33060;50.178;7.570;2023-03-04T00:07:15;97785.94;;;-2.34;92.93
47330;BME280;33060;50.178;7.570;2023-03-04T00:09:44;97777.19;;;-2.19;94.90
47330;BME280;33060;50.178;7.570;2023-03-04T00:12:11;97779.66;;;-2.06;95.89
47330;BME280;33060;50.178;7.570;2023-03-04T00:14:39;97779.66;;;-2.06;95.35
47330;BME280;33060;50.178;7.570;2023-03-04T00:17:05;97778.72;;;-1.95;95.99
47330;BME280;33060;50.178;7.570;2023-03-04T00:19:32;97776.97;;;-1.93;95.42
47330;BME280;33060;50.178;7.570;2023-03-04T00:22:00;97776.06;;;-1.89;96.10
47330;BME280;33060;50.178;7.570;2023-03-04T00:24:27;97775.97;;;-1.80;95.99
47330;BME280;33060;50.178;7.570;2023-03-04T00:26:54;97773.31;;;-1.71;95.74
47330;BME280;33060;50.178;7.570;2023-03-04T00:29:20;97771.53;;;-1.67;95.11
47330;BME280;33060;50.178;7.570;2023-03-04T00:31:47;97762.00;;;-1.61;95.56
47330;BME280;33060;50.178;7.570;2023-03-04T00:34:14;97763.69;;;-1.60;96.03
47330;BME280;33060;50.178;7.570;2023-03-04T00:36:41;97768.78;;;-1.52;96.02
47330;BME280;33060;50.178;7.570;2023-03-04T00:39:11;97761.84;;;-1.49;95.15
47330;BME280;33060;50.178;7.570;2023-03-04T00:41:38;97767.91;;;-1.51;94.59
47330;BME280;33060;50.178;7.570;2023-03-04T00:44:05;97759.31;;;-1.53;94.63
47330;BME280;33060;50.178;7.570;2023-03-04T00:46:32;97762.78;;;-1.54;95.32
47330;BME280;33060;50.178;7.570;2023-03-04T00:48:58;97760.22;;;-1.57;94.86
47330;BME280;33060;50.178;7.570;2023-03-04T00:51:25;97755.84;;;-1.51;94.86
47330;BME280;33060;50.178;7.570;2023-03-04T00:53:52;97755.88;;;-1.54;94.68
47330;BME280;33060;50.178;7.570;2023-03-04T00:56:18;97764.44;;;-1.49;95.22
47330;BME280;33060;50.178;7.570;2023-03-04T00:58:45;97761.78;;;-1.43;94.85
47330;BME280;33060;50.178;7.570;2023-03-04T01:01:12;97762.56;;;-1.36;95.43
47330;BME280;33060;50.178;7.570;2023-03-04T01:03:38;97751.28;;;-1.29;95.76
47330;BME280;33060;50.178;7.570;2023-03-04T01:06:07;97751.25;;;-1.26;94.77
47330;BME280;33060;50.178;7.570;2023-03-04T01:08:33;97762.41;;;-1.24;94.29
47330;BME280;33060;50.178;7.570;2023-03-04T01:11:00;97753.88;;;-1.29;94.51
47330;BME280;33060;50.178;7.570;2023-03-04T01:13:27;97747.78;;;-1.26;95.20
47330;BME280;33060;50.178;7.570;2023-03-04T01:15:53;97752.84;;;-1.17;95.44
47330;BME280;33060;50.178;7.570;2023-03-04T01:18:21;97747.63;;;-1.11;95.22
47330;BME280;33060;50.178;7.570;2023-03-04T01:20:47;97745.00;;;-1.09;94.73
47330;BME280;33060;50.178;7.570;2023-03-04T01:23:14;97741.56;;;-1.10;94.96
47330;BME280;33060;50.178;7.570;2023-03-04T01:25:41;97737.38;;;-1.20;94.85
47330;BME280;33060;50.178;7.570;2023-03-04T01:28:08;97744.16;;;-1.13;95.97
47330;BME280;33060;50.178;7.570;2023-03-04T01:30:34;97743.09;;;-0.97;96.34
47330;BME280;33060;50.178;7.570;2023-03-04T01:33:01;97734.41;;;-0.93;95.63
47330;BME280;33060;50.178;7.570;2023-03-04T01:35:28;97724.75;;;-0.81;96.28
47330;BME280;33060;50.178;7.570;2023-03-04T01:37:55;97723.81;;;-0.74;96.24
47330;BME280;33060;50.178;7.570;2023-03-04T01:40:22;97718.59;;;-0.73;96.82
47330;BME280;33060;50.178;7.570;2023-03-04T01:42:49;97705.56;;;-0.67;96.50
47330;BME280;33060;50.178;7.570;2023-03-04T01:45:17;97710.72;;;-0.65;95.93
47330;BME280;33060;50.178;7.570;2023-03-04T01:47:46;97707.19;;;-0.60;96.90
47330;BME280;33060;50.178;7.570;2023-03-04T01:50:29;97704.47;;;-0.53;96.51
47330;BME280;33060;50.178;7.570;2023-03-04T01:52:56;97695.78;;;-0.49;96.40
47330;BME280;33060;50.178;7.570;2023-03-04T01:55:23;97701.75;;;-0.46;96.78
47330;BME280;33060;50.178;7.570;2023-03-04T01:57:51;97698.28;;;-0.43;96.91
47330;BME280;33060;50.178;7.570;2023-03-04T02:00:24;97696.44;;;-0.37;96.64
47330;BME280;33060;50.178;7.570;2023-03-04T02:03:07;97691.31;;;-0.40;96.37
47330;BME280;33060;50.178;7.570;2023-03-04T02:05:39;97694.66;;;-0.33;97.08
47330;BME280;33060;50.178;7.570;2023-03-04T02:08:07;97687.69;;;-0.30;97.17
47330;BME280;33060;50.178;7.570;2023-03-04T02:10:35;97689.31;;;-0.24;96.71
47330;BME280;33060;50.178;7.570;2023-03-04T02:13:04;97686.72;;;-0.24;96.64
47330;BME280;33060;50.178;7.570;2023-03-04T02:15:32;97681.50;;;-0.22;96.46
47330;BME280;33060;50.178;7.570;2023-03-04T02:17:59;97678.81;;;-0.18;96.67
47330;BME280;33060;50.178;7.570;2023-03-04T02:21:04;97675.38;;;-0.17;96.08
47330;BME280;33060;50.178;7.570;2023-03-04T02:24:06;97670.16;;;-0.15;96.01
47330;BME280;33060;50.178;7.570;2023-03-04T02:26:36;97668.38;;;-0.13;95.79
47330;BME280;33060;50.178;7.570;2023-03-04T02:29:05;97671.69;;;-0.05;95.43
47330;BME280;33060;50.178;7.570;2023-03-04T02:31:38;97669.97;;;-0.05;95.74
47330;BME280;33060;50.178;7.570;2023-03-04T02:34:10;97669.09;;;-0.05;95.72
47330;BME280;33060;50.178;7.570;2023-03-04T02:36:38;97667.25;;;0.02;95.46
47330;BME280;33060;50.178;7.570;2023-03-04T02:41:38;97662.94;;;0.02;95.34
47330;BME280;33060;50.178;7.570;2023-03-04T02:44:19;97664.69;;;0.00;94.46
47330;BME280;33060;50.178;7.570;2023-03-04T02:46:46;97673.31;;;0.02;94.93
47330;BME280;33060;50.178;7.570;2023-03-04T02:49:13;97660.34;;;0.02;95.42
47330;BME280;33060;50.178;7.570;2023-03-04T02:51:40;97664.63;;;0.03;94.92
47330;BME280;33060;50.178;7.570;2023-03-04T02:54:14;97666.34;;;0.04;95.92
47330;BME280;33060;50.178;7.570;2023-03-04T02:56:50;97660.25;;;0.05;95.01
47330;BME280;33060;50.178;7.570;2023-03-04T02:59:18;97665.47;;;0.05;95.18
47330;BME280;33060;50.178;7.570;2023-03-04T03:01:45;97668.97;;;0.03;95.47
47330;BME280;33060;50.178;7.570;2023-03-04T03:04:12;97669.75;;;0.06;95.33
47330;BME280;33060;50.178;7.570;2023-03-04T03:06:40;97666.41;;;0.01;95.15
47330;BME280;33060;50.178;7.570;2023-03-04T03:09:07;97660.34;;;0.02;95.86
47330;BME280;33060;50.178;7.570;2023-03-04T03:11:35;97663.81;;;-0.01;95.17
47330;BME280;33060;50.178;7.570;2023-03-04T03:14:02;97660.47;;;-0.06;95.28
47330;BME280;33060;50.178;7.570;2023-03-04T03:16:29;97661.28;;;-0.04;95.68
47330;BME280;33060;50.178;7.570;2023-03-04T03:18:56;97660.38;;;0.01;97.30
47330;BME280;33060;50.178;7.570;2023-03-04T03:21:23;97656.94;;;-0.02;96.17
47330;BME280;33060;50.178;7.570;2023-03-04T03:23:50;97656.88;;;0.02;96.29
47330;BME280;33060;50.178;7.570;2023-03-04T03:26:18;97660.34;;;0.02;95.36
47330;BME280;33060;50.178;7.570;2023-03-04T03:28:45;97657.00;;;-0.05;96.34
47330;BME280;33060;50.178;7.570;2023-03-04T03:31:12;97660.44;;;-0.04;96.33
47330;BME280;33060;50.178;7.570;2023-03-04T03:33:38;97648.28;;;-0.02;96.08
47330;BME280;33060;50.178;7.570;2023-03-04T03:36:06;97651.75;;;-0.02;96.36
47330;BME280;33060;50.178;7.570;2023-03-04T03:38:33;97656.94;;;-0.02;96.11
47330;BME280;33060;50.178;7.570;2023-03-04T03:41:00;97646.63;;;-0.05;95.80
47330;BME280;33060;50.178;7.570;2023-03-04T03:43:27;97644.88;;;-0.04;95.96
47330;BME280;33060;50.178;7.570;2023-03-04T03:45:54;97648.38;;;-0.05;96.26
47330;BME280;33060;50.178;7.570;2023-03-04T03:48:20;97642.28;;;-0.04;96.33
47330;BME280;33060;50.178;7.570;2023-03-04T03:50:47;97647.47;;;-0.04;96.39
47330;BME280;33060;50.178;7.570;2023-03-04T03:53:14;97644.84;;;-0.03;95.93
47330;BME280;33060;50.178;7.570;2023-03-04T03:55:40;97655.19;;;0.01;95.51
47330;BME280;33060;50.178;7.570;2023-03-04T03:58:07;97650.84;;;0.01;95.50
47330;BME280;33060;50.178;7.570;2023-03-04T04:00:33;97649.16;;;-0.02;96.14
47330;BME280;33060;50.178;7.570;2023-03-04T04:03:00;97643.13;;;-0.04;95.82
47330;BME280;33060;50.178;7.570;2023-03-04T04:05:27;97644.00;;;-0.03;96.03
47330;BME280;33060;50.178;7.570;2023-03-04T04:07:54;97644.00;;;-0.03;96.74
47330;BME280;33060;50.178;7.570;2023-03-04T04:10:21;97646.47;;;0.03;96.29
47330;BME280;33060;50.178;7.570;2023-03-04T04:12:47;97645.50;;;0.09;94.85
47330;BME280;33060;50.178;7.570;2023-03-04T04:15:14;97641.09;;;0.14;94.60
47330;BME280;33060;50.178;7.570;2023-03-04T04:17:41;97640.19;;;0.15;94.78
47330;BME280;33060;50.178;7.570;2023-03-04T04:20:08;97638.50;;;0.14;95.02
47330;BME280;33060;50.178;7.570;2023-03-04T04:22:35;97639.44;;;0.10;94.88
47330;BME280;33060;50.178;7.570;2023-03-04T04:25:01;97641.09;;;0.14;94.88
47330;BME280;33060;50.178;7.570;2023-03-04T04:27:28;97637.56;;;0.16;94.67
47330;BME280;33060;50.178;7.570;2023-03-04T04:29:55;97634.06;;;0.19;94.34
47330;BME280;33060;50.178;7.570;2023-03-04T04:32:21;97639.97;;;0.25;93.93
47330;BME280;33060;50.178;7.570;2023-03-04T04:34:48;97632.97;;;0.31;93.39
47330;BME280;33060;50.178;7.570;2023-03-04T04:37:14;97625.19;;;0.31;93.21
47330;BME280;33060;50.178;7.570;2023-03-04T04:39:41;97628.63;;;0.31;93.34
47330;BME280;33060;50.178;7.570;2023-03-04T04:42:09;97631.31;;;0.28;93.60
47330;BME280;33060;50.178;7.570;2023-03-04T04:44:36;97635.63;;;0.26;93.81
47330;BME280;33060;50.178;7.570;2023-03-04T04:47:05;97630.50;;;0.24;93.76
47330;BME280;33060;50.178;7.570;2023-03-04T04:49:32;97623.59;;;0.23;94.66
47330;BME280;33060;50.178;7.570;2023-03-04T04:51:59;97630.53;;;0.23;94.25
47330;BME280;33060;50.178;7.570;2023-03-04T04:54:26;97634.81;;;0.24;93.83
47330;BME280;33060;50.178;7.570;2023-03-04T04:56:52;97629.66;;;0.22;93.67
47330;BME280;33060;50.178;7.570;2023-03-04T04:59:19;97633.09;;;0.24;93.96
47330;BME280;33060;50.178;7.570;2023-03-04T05:01:46;97629.59;;;0.27;93.97
47330;BME280;33060;50.178;7.570;2023-03-04T05:04:13;97627.84;;;0.27;93.53
47330;BME280;33060;50.178;7.570;2023-03-04T05:06:39;97628.75;;;0.26;93.26
47330;BME280;33060;50.178;7.570;2023-03-04T05:09:06;97639.03;;;0.30;93.43
47330;BME280;33060;50.178;7.570;2023-03-04T05:11:33;97626.00;;;0.33;93.58
47330;BME280;33060;50.178;7.570;2023-03-04T05:14:00;97636.25;;;0.39;93.17
47330;BME280;33060;50.178;7.570;2023-03-04T05:16:26;97629.38;;;0.38;92.66
47330;BME280;33060;50.178;7.570;2023-03-04T05:18:53;97629.38;;;0.38;92.62
47330;BME280;33060;50.178;7.570;2023-03-04T05:21:20;97634.50;;;0.41;92.63
47330;BME280;33060;50.178;7.570;2023-03-04T05:23:46;97629.38;;;0.38;91.73
47330;BME280;33060;50.178;7.570;2023-03-04T05:26:15;97631.16;;;0.36;91.68
47330;BME280;33060;50.178;7.570;2023-03-04T05:28:43;97619.72;;;0.43;92.14
47330;BME280;33060;50.178;7.570;2023-03-04T05:31:10;97617.94;;;0.46;92.50
47330;BME280;33060;50.178;7.570;2023-03-04T05:33:37;97625.69;;;0.48;91.77
47330;BME280;33060;50.178;7.570;2023-03-04T05:36:05;97637.84;;;0.46;91.60
47330;BME280;33060;50.178;7.570;2023-03-04T05:38:32;97628.28;;;0.48;91.41
47330;BME280;33060;50.178;7.570;2023-03-04T05:41:01;97633.56;;;0.45;91.63
47330;BME280;33060;50.178;7.570;2023-03-04T05:43:30;97632.78;;;0.40;91.95
47330;BME280;33060;50.178;7.570;2023-03-04T05:45:56;97630.09;;;0.43;91.94
47330;BME280;33060;50.178;7.570;2023-03-04T05:48:23;97625.78;;;0.45;91.88
47330;BME280;33060;50.178;7.570;2023-03-04T05:50:58;97623.19;;;0.43;92.27
47330;BME280;33060;50.178;7.570;2023-03-04T05:53:26;97624.84;;;0.47;91.80
47330;BME280;33060;50.178;7.570;2023-03-04T05:55:54;97630.00;;;0.49;92.11
47330;BME280;33060;50.178;7.570;2023-03-04T05:58:21;97623.94;;;0.48;91.72
47330;BME280;33060;50.178;7.570;2023-03-04T06:00:48;97629.16;;;0.48;91.93
47330;BME280;33060;50.178;7.570;2023-03-04T06:03:17;97630.00;;;0.49;91.74
47330;BME280;33060;50.178;7.570;2023-03-04T06:05:44;97629.91;;;0.52;92.29
47330;BME280;33060;50.178;7.570;2023-03-04T06:08:11;97629.91;;;0.53;91.45
47330;BME280;33060;50.178;7.570;2023-03-04T06:10:39;97623.88;;;0.53;91.81
47330;BME280;33060;50.178;7.570;2023-03-04T06:13:06;97636.84;;;0.53;92.20
47330;BME280;33060;50.178;7.570;2023-03-04T06:15:33;97631.59;;;0.56;91.81
47330;BME280;33060;50.178;7.570;2023-03-04T06:18:00;97631.47;;;0.61;91.31
47330;BME280;33060;50.178;7.570;2023-03-04T06:20:27;97637.63;;;0.56;91.38
47330;BME280;33060;50.178;7.570;2023-03-04T06:22:55;97642.81;;;0.56;91.68
47330;BME280;33060;50.178;7.570;2023-03-04T06:25:22;97641.00;;;0.60;91.46
47330;BME280;33060;50.178;7.570;2023-03-04T06:27:48;97642.72;;;0.61;91.34
47330;BME280;33060;50.178;7.570;2023-03-04T06:30:17;97651.38;;;0.62;91.50
47330;BME280;33060;50.178;7.570;2023-03-04T06:32:44;97649.63;;;0.62;91.23
47330;BME280;33060;50.178;7.570;2023-03-04T06:35:12;97657.38;;;0.64;91.26
47330;BME280;33060;50.178;7.570;2023-03-04T06:37:39;97659.00;;;0.68;91.21
47330;BME280;33060;50.178;7.570;2023-03-04T06:40:07;97652.06;;;0.70;90.67
47330;BME280;33060;50.178;7.570;2023-03-04T06:42:35;97657.81;;;0.84;89.17
47330;BME280;33060;50.178;7.570;2023-03-04T06:45:02;97659.41;;;0.90;89.10
47330;BME280;33060;50.178;7.570;2023-03-04T06:47:29;97666.34;;;0.89;88.75
47330;BME280;33060;50.178;7.570;2023-03-04T06:49:56;97664.56;;;0.91;88.75
47330;BME280;33060;50.178;7.570;2023-03-04T06:52:23;97667.25;;;0.88;89.00
47330;BME280;33060;50.178;7.570;2023-03-04T06:54:49;97674.19;;;0.88;88.99
47330;BME280;33060;50.178;7.570;2023-03-04T06:57:16;97675.72;;;0.95;88.74
47330;BME280;33060;50.178;7.570;2023-03-04T06:59:42;97679.31;;;0.91;89.02
47330;BME280;33060;50.178;7.570;2023-03-04T07:02:20;97680.94;;;0.96;89.03
47330;BME280;33060;50.178;7.570;2023-03-04T07:04:46;97677.28;;;1.03;89.60
47330;BME280;33060;50.178;7.570;2023-03-04T07:07:13;97678.25;;;0.99;88.92
47330;BME280;33060;50.178;7.570;2023-03-04T07:09:40;97678.81;;;1.12;87.88
47330;BME280;33060;50.178;7.570;2023-03-04T07:12:06;97680.72;;;1.05;88.20
47330;BME280;33060;50.178;7.570;2023-03-04T07:14:33;97685.03;;;1.06;88.49
47330;BME280;33060;50.178;7.570;2023-03-04T07:17:00;97685.03;;;1.06;88.55
47330;BME280;33060;50.178;7.570;2023-03-04T07:19:26;97683.19;;;1.10;88.49
47330;BME280;33060;50.178;7.570;2023-03-04T07:21:53;97684.91;;;1.11;89.36
47330;BME280;33060;50.178;7.570;2023-03-04T07:24:19;97684.00;;;1.13;89.36
47330;BME280;33060;50.178;7.570;2023-03-04T07:26:46;97690.75;;;1.21;88.47
47330;BME280;33060;50.178;7.570;2023-03-04T07:29:13;97683.72;;;1.26;88.05
47330;BME280;33060;50.178;7.570;2023-03-04T07:31:39;97691.19;;;1.39;86.49
47330;BME280;33060;50.178;7.570;2023-03-04T07:34:13;97687.75;;;1.37;86.98
47330;BME280;33060;50.178;7.570;2023-03-04T07:36:40;97690.41;;;1.36;87.28
47330;BME280;33060;50.178;7.570;2023-03-04T07:39:09;97684.94;;;1.47;86.59
47330;BME280;33060;50.178;7.570;2023-03-04T07:41:36;97684.13;;;1.45;86.44
47330;BME280;33060;50.178;7.570;2023-03-04T07:44:04;97695.47;;;1.42;86.79
47330;BME280;33060;50.178;7.570;2023-03-04T07:46:32;97701.38;;;1.49;85.79
47330;BME280;33060;50.178;7.570;2023-03-04T07:48:59;97700.53;;;1.48;86.30
47330;BME280;33060;50.178;7.570;2023-03-04T07:51:26;97691.66;;;1.55;86.19
47330;BME280;33060;50.178;7.570;2023-03-04T07:53:56;97702.06;;;1.55;85.60
47330;BME280;33060;50.178;7.570;2023-03-04T07:56:25;97699.44;;;1.57;85.75
47330;BME280;33060;50.178;7.570;2023-03-04T07:58:52;97700.31;;;1.57;86.53
47330;BME280;33060;50.178;7.570;2023-03-04T08:01:22;97701.06;;;1.61;85.48
47330;BME280;33060;50.178;7.570;2023-03-04T08:03:49;97704.44;;;1.66;84.88
47330;BME280;33060;50.178;7.570;2023-03-04T08:06:16;97703.56;;;1.65;84.80
47330;BME280;33060;50.178;7.570;2023-03-04T08:08:44;97705.09;;;1.73;83.66
47330;BME280;33060;50.178;7.570;2023-03-04T08:11:14;97697.94;;;1.82;83.40
47330;BME280;33060;50.178;7.570;2023-03-04T08:13:41;97710.22;;;1.77;83.26
47330;BME280;33060;50.178;7.570;2023-03-04T08:16:11;97703.94;;;1.86;82.31
47330;BME280;33060;50.178;7.570;2023-03-04T08:18:38;97707.47;;;1.83;82.33
47330;BME280;33060;50.178;7.570;2023-03-04T08:21:08;97706.34;;;1.93;81.99
47330;BME280;33060;50.178;7.570;2023-03-04T08:23:35;97710.69;;;1.93;81.95
47330;BME280;33060;50.178;7.570;2023-03-04T08:26:08;97708.84;;;1.96;83.05
47330;BME280;33060;50.178;7.570;2023-03-04T08:28:35;97709.75;;;1.95;82.74
47330;BME280;33060;50.178;7.570;2023-03-04T08:31:02;97707.06;;;1.98;82.47
47330;BME280;33060;50.178;7.570;2023-03-04T08:33:30;97702.69;;;2.01;81.72
47330;BME280;33060;50.178;7.570;2023-03-04T08:35:56;97700.00;;;2.04;81.86
47330;BME280;33060;50.178;7.570;2023-03-04T08:38:23;97702.69;;;2.01;82.36
47330;BME280;33060;50.178;7.570;2023-03-04T08:40:56;97703.34;;;2.09;81.99
47330;BME280;33060;50.178;7.570;2023-03-04T08:43:24;97700.75;;;2.07;81.95
47330;BME280;33060;50.178;7.570;2023-03-04T08:45:52;97705.06;;;2.10;81.76
47330;BME280;33060;50.178;7.570;2023-03-04T08:48:20;97706.59;;;2.17;81.88
47330;BME280;33060;50.178;7.570;2023-03-04T08:50:47;97702.22;;;2.19;81.37
47330;BME280;33060;50.178;7.570;2023-03-04T08:53:14;97706.44;;;2.23;81.29
47330;BME280;33060;50.178;7.570;2023-03-04T08:55:42;97703.13;;;2.18;81.20
47330;BME280;33060;50.178;7.570;2023-03-04T08:58:09;97707.41;;;2.19;81.89
47330;BME280;33060;50.178;7.570;2023-03-04T09:00:39;97706.38;;;2.26;81.17
47330;BME280;33060;50.178;7.570;2023-03-04T09:03:10;97699.44;;;2.25;81.62
47330;BME280;33060;50.178;7.570;2023-03-04T09:05:37;97703.81;;;2.23;81.33
47330;BME280;33060;50.178;7.570;2023-03-04T09:08:04;97698.41;;;2.31;81.29
47330;BME280;33060;50.178;7.570;2023-03-04T09:10:31;97696.72;;;2.30;81.84
47330;BME280;33060;50.178;7.570;2023-03-04T09:12:58;97703.38;;;2.40;81.79
47330;BME280;33060;50.178;7.570;2023-03-04T09:15:24;97705.09;;;2.41;82.42
47330;BME280;33060;50.178;7.570;2023-03-04T09:17:51;97711.38;;;2.32;81.95
47330;BME280;33060;50.178;7.570;2023-03-04T09:20:18;97712.78;;;2.45;81.27
47330;BME280;33060;50.178;7.570;2023-03-04T09:22:46;97707.63;;;2.42;81.51
47330;BME280;33060;50.178;7.570;2023-03-04T09:25:13;97704.16;;;2.43;80.87
47330;BME280;33060;50.178;7.570;2023-03-04T09:27:40;97705.78;;;2.47;81.05
47330;BME280;33060;50.178;7.570;2023-03-04T09:30:08;97709.13;;;2.51;80.32
47330;BME280;33060;50.178;7.570;2023-03-04T09:32:35;97713.28;;;2.58;80.53
47330;BME280;33060;50.178;7.570;2023-03-04T09:35:02;97702.19;;;2.51;80.67
47330;BME280;33060;50.178;7.570;2023-03-04T09:37:29;97710.41;;;2.67;80.38
47330;BME280;33060;50.178;7.570;2023-03-04T09:39:56;97703.41;;;2.69;80.38
47330;BME280;33060;50.178;7.570;2023-03-04T09:42:50;97712.81;;;2.75;79.81
47330;BME280;33060;50.178;7.570;2023-03-04T09:45:22;97714.63;;;2.73;79.90
47330;BME280;33060;50.178;7.570;2023-03-04T09:47:52;97710.13;;;2.78;79.80
47330;BME280;33060;50.178;7.570;2023-03-04T09:50:20;97709.31;;;2.76;79.65
47330;BME280;33060;50.178;7.570;2023-03-04T09:55:40;97716.28;;;2.75;80.13
47330;BME280;33060;50.178;7.570;2023-03-04T10:01:37;97714.44;;;2.79;80.13
47330;BME280;33060;50.178;7.570;2023-03-04T10:04:39;97711.00;;;2.78;79.67
47330;BME280;33060;50.178;7.570;2023-03-04T10:07:17;97708.41;;;2.77;80.89
47330;BME280;33060;50.178;7.570;2023-03-04T10:10:03;97715.09;;;2.86;80.12
47330;BME280;33060;50.178;7.570;2023-03-04T10:12:33;97701.00;;;2.93;80.85
47330;BME280;33060;50.178;7.570;2023-03-04T10:15:22;97708.94;;;2.90;79.99
47330;BME280;33060;50.178;7.570;2023-03-04T10:17:59;97703.72;;;2.90;80.22
47330;BME280;33060;50.178;7.570;2023-03-04T10:20:37;97698.34;;;2.94;80.06
47330;BME280;33060;50.178;7.570;2023-03-04T10:23:14;97703.72;;;2.90;79.35
47330;BME280;33060;50.178;7.570;2023-03-04T10:25:44;97703.28;;;3.03;79.87
47330;BME280;33060;50.178;7.570;2023-03-04T10:28:17;97700.94;;;2.96;80.68
47330;BME280;33060;50.178;7.570;2023-03-04T10:33:32;97693.88;;;2.99;79.37
47330;BME280;33060;50.178;7.570;2023-03-04T10:38:38;97693.13;;;2.96;79.54
47330;BME280;33060;50.178;7.570;2023-03-04T10:41:18;97697.16;;;3.06;81.02
47330;BME280;33060;50.178;7.570;2023-03-04T10:43:50;97698.25;;;3.27;80.44
47330;BME280;33060;50.178;7.570;2023-03-04T10:46:25;97703.47;;;3.27;78.87
47330;BME280;33060;50.178;7.570;2023-03-04T10:48:53;97696.59;;;3.24;78.69
47330;BME280;33060;50.178;7.570;2023-03-04T10:51:21;97697.34;;;3.28;79.31
47330;BME280;33060;50.178;7.570;2023-03-04T10:54:08;97699.59;;;3.10;79.85
47330;BME280;33060;50.178;7.570;2023-03-04T10:56:40;97702.16;;;3.12;80.80
47330;BME280;33060;50.178;7.570;2023-03-04T10:59:32;97706.44;;;3.15;80.73
47330;BME280;33060;50.178;7.570;2023-03-04T11:02:05;97694.34;;;3.12;80.13
47330;BME280;33060;50.178;7.570;2023-03-04T11:04:38;97693.31;;;3.18;80.17
47330;BME280;33060;50.178;7.570;2023-03-04T11:07:09;97696.66;;;3.23;80.17
47330;BME280;33060;50.178;7.570;2023-03-04T11:09:37;97698.31;;;3.25;79.98
47330;BME280;33060;50.178;7.570;2023-03-04T11:12:14;97691.22;;;3.29;79.19
47330;BME280;33060;50.178;7.570;2023-03-04T11:14:45;97694.50;;;3.35;78.58
47330;BME280;33060;50.178;7.570;2023-03-04T11:17:43;97688.78;;;3.24;79.35
47330;BME280;33060;50.178;7.570;2023-03-04T11:20:34;97691.84;;;3.37;78.35
47330;BME280;33060;50.178;7.570;2023-03-04T11:23:08;97691.38;;;2.96;79.12
47330;BME280;33060;50.178;7.570;2023-03-04T11:25:41;97691.44;;;3.21;79.23
47330;BME280;33060;50.178;7.570;2023-03-04T11:28:24;97681.91;;;3.22;79.91
47330;BME280;33060;50.178;7.570;2023-03-04T11:31:05;97679.94;;;3.28;78.57
47330;BME280;33060;50.178;7.570;2023-03-04T11:38:43;97671.75;;;3.40;79.26
47330;BME280;33060;50.178;7.570;2023-03-04T11:41:15;97671.59;;;3.72;78.65
47330;BME280;33060;50.178;7.570;2023-03-04T11:43:46;97674.06;;;3.76;78.02
47330;BME280;33060;50.178;7.570;2023-03-04T11:52:33;97656.66;;;4.51;75.57
47330;BME280;33060;50.178;7.570;2023-03-04T12:14:22;97631.44;;;5.19;71.67
47330;BME280;33060;50.178;7.570;2023-03-04T12:22:46;97620.56;;;4.63;73.51
47330;BME280;33060;50.178;7.570;2023-03-04T12:28:17;97621.16;;;4.46;74.20
47330;BME280;33060;50.178;7.570;2023-03-04T12:31:00;97623.53;;;4.29;74.72
47330;BME280;33060;50.178;7.570;2023-03-04T12:33:45;97614.00;;;4.28;75.06
47330;BME280;33060;50.178;7.570;2023-03-04T12:39:34;97606.19;;;4.28;74.88
47330;BME280;33060;50.178;7.570;2023-03-04T12:56:58;97586.31;;;4.70;73.30
47330;BME280;33060;50.178;7.570;2023-03-04T12:59:31;97587.59;;;4.59;74.46
47330;BME280;33060;50.178;7.570;2023-03-04T13:10:45;97578.38;;;4.95;73.32
47330;BME280;33060;50.178;7.570;2023-03-04T13:13:40;97573.13;;;4.95;73.20
47330;BME280;33060;50.178;7.570;2023-03-04T13:18:37;97564.97;;;4.81;72.78
47330;BME280;33060;50.178;7.570;2023-03-04T13:23:37;97560.59;;;5.03;72.75
47330;BME280;33060;50.178;7.570;2023-03-04T13:26:07;97555.00;;;4.91;72.80
47330;BME280;33060;50.178;7.570;2023-03-04T13:28:35;97555.34;;;5.03;73.02
47330;BME280;33060;50.178;7.570;2023-03-04T13:36:07;97555.72;;;4.72;73.21
47330;BME280;33060;50.178;7.570;2023-03-04T13:41:47;97553.31;;;4.90;73.03
47330;BME280;33060;50.178;7.570;2023-03-04T13:47:19;97544.97;;;5.02;73.18
47330;BME280;33060;50.178;7.570;2023-03-04T13:49:46;97550.13;;;5.03;73.42
47330;BME280;33060;50.178;7.570;2023-03-04T13:52:40;97546.19;;;4.93;73.56
47330;BME280;33060;50.178;7.570;2023-03-04T13:55:31;97543.88;;;4.86;73.80
47330;BME280;33060;50.178;7.570;2023-03-04T13:57:59;97546.84;;;4.76;73.31
47330;BME280;33060;50.178;7.570;2023-03-04T14:00:26;97543.31;;;4.77;73.38
47330;BME280;33060;50.178;7.570;2023-03-04T14:02:54;97543.56;;;4.71;73.14
47330;BME280;33060;50.178;7.570;2023-03-04T14:05:20;97540.38;;;4.87;73.16
47330;BME280;33060;50.178;7.570;2023-03-04T14:07:47;97532.94;;;4.98;73.39
47330;BME280;33060;50.178;7.570;2023-03-04T14:10:23;97530.56;;;4.92;73.06
47330;BME280;33060;50.178;7.570;2023-03-04T14:12:54;97535.66;;;4.95;73.70
47330;BME280;33060;50.178;7.570;2023-03-04T14:15:27;97528.50;;;4.78;74.14
47330;BME280;33060;50.178;7.570;2023-03-04T14:18:02;97527.31;;;4.87;73.64
47330;BME280;33060;50.178;7.570;2023-03-04T14:20:36;97527.75;;;4.74;73.85
47330;BME280;33060;50.178;7.570;2023-03-04T14:23:22;97517.09;;;4.80;73.59
47330;BME280;33060;50.178;7.570;2023-03-04T14:25:49;97523.16;;;4.81;73.90
47330;BME280;33060;50.178;7.570;2023-03-04T14:28:19;97518.84;;;4.80;74.15
47330;BME280;33060;50.178;7.570;2023-03-04T14:30:54;97521.69;;;4.74;74.03
47330;BME280;33060;50.178;7.570;2023-03-04T14:33:31;97517.47;;;4.48;74.29
47330;BME280;33060;50.178;7.570;2023-03-04T14:36:01;97518.88;;;4.57;74.25
47330;BME280;33060;50.178;7.570;2023-03-04T14:38:33;97511.63;;;4.41;75.18
47330;BME280;33060;50.178;7.570;2023-03-04T14:41:16;97509.78;;;4.45;75.10
47330;BME280;33060;50.178;7.570;2023-03-04T14:46:38;97503.69;;;4.44;75.84
47330;BME280;33060;50.178;7.570;2023-03-04T14:49:11;97508.91;;;4.44;75.85
47330;BME280;33060;50.178;7.570;2023-03-04T14:51:48;97498.28;;;4.49;75.59
47330;BME280;33060;50.178;7.570;2023-03-04T14:57:24;97495.78;;;4.46;76.55
47330;BME280;33060;50.178;7.570;2023-03-04T14:59:53;97495.09;;;4.41;77.29
47330;BME280;33060;50.178;7.570;2023-03-04T15:02:37;97488.25;;;4.38;77.43
47330;BME280;33060;50.178;7.570;2023-03-04T15:05:17;97489.81;;;4.42;77.41